sensor_id;sensor_type;location;lat;lon;timestamp;temperature;humidity
64599;SHT31;51008;51.504;11.548;2024-02-14T00:04:26;3.88;88.26
64599;SHT31;51008;51.504;11.548;2024-02-14T00:09:27;3.93;88.50
64599;SHT31;51008;51.504;11.548;2024-02-14T00:14:29;3.98;87.77
64599;SHT31;51008;51.504;11.548;2024-02-14T00:19:30;3.94;88.33
64599;SHT31;51008;51.504;11.548;2024-02-14T00:24:31;3.94;88.23
64599;SHT31;51008;51.504;11.548;2024-02-14T00:29:32;3.97;88.32
64599;SHT31;51008;51.504;11.548;2024-02-14T00:34:34;3.95;88.77
64599;SHT31;51008;51.504;11.548;2024-02-14T00:39:35;4.02;89.35
64599;SHT31;51008;51.504;11.548;2024-02-14T00:44:36;4.18;89.14
64599;SHT31;51008;51.504;11.548;2024-02-14T00:49:37;4.29;88.44
64599;SHT31;51008;51.504;11.548;2024-02-14T00:54:38;4.40;88.37
64599;SHT31;51008;51.504;11.548;2024-02-14T00:59:39;4.52;88.14
64599;SHT31;51008;51.504;11.548;2024-02-14T01:04:40;4.56;88.02
64599;SHT31;51008;51.504;11.548;2024-02-14T01:09:42;4.60;87.87
64599;SHT31;51008;51.504;11.548;2024-02-14T01:14:43;4.67;87.61
64599;SHT31;51008;51.504;11.548;2024-02-14T01:19:44;4.70;87.74
64599;SHT31;51008;51.504;11.548;2024-02-14T01:24:45;4.74;87.57
64599;SHT31;51008;51.504;11.548;2024-02-14T01:29:47;4.75;87.68
64599;SHT31;51008;51.504;11.548;2024-02-14T01:34:48;4.73;87.53
64599;SHT31;51008;51.504;11.548;2024-02-14T01:39:49;4.74;87.17
64599;SHT31;51008;51.504;11.548;2024-02-14T01:44:51;4.74;87.46
64599;SHT31;51008;51.504;11.548;2024-02-14T01:49:52;4.71;87.71
64599;SHT31;51008;51.504;11.548;2024-02-14T01:54:54;4.70;87.55
64599;SHT31;51008;51.504;11.548;2024-02-14T01:59:56;4.66;87.94
64599;SHT31;51008;51.504;11.548;2024-02-14T02:04:57;4.68;87.46
64599;SHT31;51008;51.504;11.548;2024-02-14T02:09:58;4.61;87.99
64599;SHT31;51008;51.504;11.548;2024-02-14T02:15:00;4.58;87.87
64599;SHT31;51008;51.504;11.548;2024-02-14T02:20:01;4.60;88.10
64599;SHT31;51008;51.504;11.548;2024-02-14T02:25:03;4.57;88.12
64599;SHT31;51008;51.504;11.548;2024-02-14T02:30:05;4.54;88.14
64599;SHT31;51008;51.504;11.548;2024-02-14T02:35:07;4.54;88.04
64599;SHT31;51008;51.504;11.548;2024-02-14T02:40:09;4.52;88.13
64599;SHT31;51008;51.504;11.548;2024-02-14T02:45:11;4.54;87.67
64599;SHT31;51008;51.504;11.548;2024-02-14T02:50:12;4.50;87.17
64599;SHT31;51008;51.504;11.548;2024-02-14T02:55:13;4.54;87.02
64599;SHT31;51008;51.504;11.548;2024-02-14T03:00:15;4.60;87.23
64599;SHT31;51008;51.504;11.548;2024-02-14T03:05:17;4.61;86.82
64599;SHT31;51008;51.504;11.548;2024-02-14T03:10:18;4.64;86.82
64599;SHT31;51008;51.504;11.548;2024-02-14T03:15:19;4.50;87.85
64599;SHT31;51008;51.504;11.548;2024-02-14T03:20:21;4.42;88.67
64599;SHT31;51008;51.504;11.548;2024-02-14T03:25:22;4.21;89.87
64599;SHT31;51008;51.504;11.548;2024-02-14T03:30:23;4.15;90.03
64599;SHT31;51008;51.504;11.548;2024-02-14T03:35:24;4.16;90.36
64599;SHT31;51008;51.504;11.548;2024-02-14T03:40:25;4.19;90.50
64599;SHT31;51008;51.504;11.548;2024-02-14T03:45:27;4.25;90.64
64599;SHT31;51008;51.504;11.548;2024-02-14T03:50:28;4.21;90.80
64599;SHT31;51008;51.504;11.548;2024-02-14T03:55:30;4.22;91.09
64599;SHT31;51008;51.504;11.548;2024-02-14T04:00:31;4.26;91.16
64599;SHT31;51008;51.504;11.548;2024-02-14T04:05:33;4.28;90.94
64599;SHT31;51008;51.504;11.548;2024-02-14T04:10:34;4.47;89.10
64599;SHT31;51008;51.504;11.548;2024-02-14T04:15:35;4.83;87.11
64599;SHT31;51008;51.504;11.548;2024-02-14T04:20:36;5.12;85.64
64599;SHT31;51008;51.504;11.548;2024-02-14T04:25:37;5.29;85.35
64599;SHT31;51008;51.504;11.548;2024-02-14T04:30:38;5.50;84.90
64599;SHT31;51008;51.504;11.548;2024-02-14T04:35:40;5.46;84.73
64599;SHT31;51008;51.504;11.548;2024-02-14T04:40:41;5.50;84.78
64599;SHT31;51008;51.504;11.548;2024-02-14T04:45:42;5.64;84.39
64599;SHT31;51008;51.504;11.548;2024-02-14T04:50:43;5.72;84.15
64599;SHT31;51008;51.504;11.548;2024-02-14T04:55:44;5.72;84.11
64599;SHT31;51008;51.504;11.548;2024-02-14T05:00:45;5.77;83.91
64599;SHT31;51008;51.504;11.548;2024-02-14T05:05:47;5.81;83.66
64599;SHT31;51008;51.504;11.548;2024-02-14T05:10:48;5.81;84.21
64599;SHT31;51008;51.504;11.548;2024-02-14T05:15:49;5.82;84.25
64599;SHT31;51008;51.504;11.548;2024-02-14T05:20:50;5.87;84.30
64599;SHT31;51008;51.504;11.548;2024-02-14T05:25:51;6.01;84.13
64599;SHT31;51008;51.504;11.548;2024-02-14T05:30:52;6.02;84.27
64599;SHT31;51008;51.504;11.548;2024-02-14T05:35:54;5.98;84.82
64599;SHT31;51008;51.504;11.548;2024-02-14T05:40:55;6.02;84.83
64599;SHT31;51008;51.504;11.548;2024-02-14T05:45:56;5.94;85.75
64599;SHT31;51008;51.504;11.548;2024-02-14T05:50:57;5.81;86.90
64599;SHT31;51008;51.504;11.548;2024-02-14T05:55:59;5.74;87.57
64599;SHT31;51008;51.504;11.548;2024-02-14T06:01:00;5.75;87.38
64599;SHT31;51008;51.504;11.548;2024-02-14T06:06:01;5.82;87.14
64599;SHT31;51008;51.504;11.548;2024-02-14T06:11:02;5.87;87.21
64599;SHT31;51008;51.504;11.548;2024-02-14T06:16:04;5.95;86.97
64599;SHT31;51008;51.504;11.548;2024-02-14T06:21:05;6.09;86.57
64599;SHT31;51008;51.504;11.548;2024-02-14T06:26:07;6.19;86.07
64599;SHT31;51008;51.504;11.548;2024-02-14T06:31:08;6.25;85.91
64599;SHT31;51008;51.504;11.548;2024-02-14T06:36:09;6.23;85.94
64599;SHT31;51008;51.504;11.548;2024-02-14T06:41:13;6.20;86.45
64599;SHT31;51008;51.504;11.548;2024-02-14T06:46:15;6.30;86.10
64599;SHT31;51008;51.504;11.548;2024-02-14T06:51:16;6.34;86.12
64599;SHT31;51008;51.504;11.548;2024-02-14T06:56:17;6.34;86.25
64599;SHT31;51008;51.504;11.548;2024-02-14T07:01:19;6.40;86.46
64599;SHT31;51008;51.504;11.548;2024-02-14T07:06:20;6.47;86.79
64599;SHT31;51008;51.504;11.548;2024-02-14T07:11:22;6.52;86.59
64599;SHT31;51008;51.504;11.548;2024-02-14T07:16:23;6.52;86.95
64599;SHT31;51008;51.504;11.548;2024-02-14T07:21:24;6.54;87.19
64599;SHT31;51008;51.504;11.548;2024-02-14T07:26:25;6.67;86.96
64599;SHT31;51008;51.504;11.548;2024-02-14T07:31:31;6.74;87.04
64599;SHT31;51008;51.504;11.548;2024-02-14T07:36:32;6.93;86.68
64599;SHT31;51008;51.504;11.548;2024-02-14T07:41:33;6.97;86.32
64599;SHT31;51008;51.504;11.548;2024-02-14T07:46:34;6.99;87.10
64599;SHT31;51008;51.504;11.548;2024-02-14T07:51:36;7.02;86.53
64599;SHT31;51008;51.504;11.548;2024-02-14T07:56:37;7.10;86.50
64599;SHT31;51008;51.504;11.548;2024-02-14T08:01:38;7.20;86.51
64599;SHT31;51008;51.504;11.548;2024-02-14T08:06:39;7.23;86.43
64599;SHT31;51008;51.504;11.548;2024-02-14T08:11:41;7.26;86.66
64599;SHT31;51008;51.504;11.548;2024-02-14T08:16:42;7.34;86.42
64599;SHT31;51008;51.504;11.548;2024-02-14T08:21:43;7.68;86.10
64599;SHT31;51008;51.504;11.548;2024-02-14T08:26:44;7.67;85.92
64599;SHT31;51008;51.504;11.548;2024-02-14T08:31:46;7.52;86.44
64599;SHT31;51008;51.504;11.548;2024-02-14T08:36:47;7.55;86.49
64599;SHT31;51008;51.504;11.548;2024-02-14T08:41:48;7.57;86.55
64599;SHT31;51008;51.504;11.548;2024-02-14T08:46:50;7.74;86.96
64599;SHT31;51008;51.504;11.548;2024-02-14T08:51:51;7.81;86.53
64599;SHT31;51008;51.504;11.548;2024-02-14T08:56:52;7.72;86.39
64599;SHT31;51008;51.504;11.548;2024-02-14T09:01:53;7.69;86.81
64599;SHT31;51008;51.504;11.548;2024-02-14T09:06:55;7.65;87.01
64599;SHT31;51008;51.504;11.548;2024-02-14T09:11:57;7.71;87.06
64599;SHT31;51008;51.504;11.548;2024-02-14T09:16:58;7.78;87.14
64599;SHT31;51008;51.504;11.548;2024-02-14T09:21:59;7.83;87.30
64599;SHT31;51008;51.504;11.548;2024-02-14T09:27:00;7.86;87.51
64599;SHT31;51008;51.504;11.548;2024-02-14T09:32:01;7.85;87.76
64599;SHT31;51008;51.504;11.548;2024-02-14T09:37:02;7.89;87.70
64599;SHT31;51008;51.504;11.548;2024-02-14T09:42:09;7.93;88.11
64599;SHT31;51008;51.504;11.548;2024-02-14T09:47:10;8.00;87.85
64599;SHT31;51008;51.504;11.548;2024-02-14T09:52:12;8.07;87.92
64599;SHT31;51008;51.504;11.548;2024-02-14T09:57:15;8.09;87.93
64599;SHT31;51008;51.504;11.548;2024-02-14T10:02:17;8.14;87.95
64599;SHT31;51008;51.504;11.548;2024-02-14T10:07:19;8.24;88.46
64599;SHT31;51008;51.504;11.548;2024-02-14T10:12:20;8.37;87.83
64599;SHT31;51008;51.504;11.548;2024-02-14T10:17:21;8.40;88.13
64599;SHT31;51008;51.504;11.548;2024-02-14T10:22:22;8.51;88.27
64599;SHT31;51008;51.504;11.548;2024-02-14T10:27:25;8.77;87.43
64599;SHT31;51008;51.504;11.548;2024-02-14T10:32:27;9.21;86.65
64599;SHT31;51008;51.504;11.548;2024-02-14T10:37:29;9.66;85.39
64599;SHT31;51008;51.504;11.548;2024-02-14T10:42:31;9.61;85.97
64599;SHT31;51008;51.504;11.548;2024-02-14T10:47:36;9.91;84.97
64599;SHT31;51008;51.504;11.548;2024-02-14T10:52:41;10.14;84.32
64599;SHT31;51008;51.504;11.548;2024-02-14T10:57:46;10.20;84.57
64599;SHT31;51008;51.504;11.548;2024-02-14T11:02:48;9.91;85.27
64599;SHT31;51008;51.504;11.548;2024-02-14T11:07:50;9.72;86.01
64599;SHT31;51008;51.504;11.548;2024-02-14T11:12:53;9.73;85.68
64599;SHT31;51008;51.504;11.548;2024-02-14T11:18:04;9.87;86.48
64599;SHT31;51008;51.504;11.548;2024-02-14T11:23:07;10.20;84.71
64599;SHT31;51008;51.504;11.548;2024-02-14T11:28:18;11.01;82.95
64599;SHT31;51008;51.504;11.548;2024-02-14T11:33:21;11.28;81.44
64599;SHT31;51008;51.504;11.548;2024-02-14T11:38:24;11.22;82.28
64599;SHT31;51008;51.504;11.548;2024-02-14T11:43:25;10.80;82.68
64599;SHT31;51008;51.504;11.548;2024-02-14T11:48:28;11.17;82.47
64599;SHT31;51008;51.504;11.548;2024-02-14T11:53:29;11.77;81.99
64599;SHT31;51008;51.504;11.548;2024-02-14T11:58:30;11.43;81.49
64599;SHT31;51008;51.504;11.548;2024-02-14T12:03:32;11.03;82.54
64599;SHT31;51008;51.504;11.548;2024-02-14T12:08:33;10.75;83.77
64599;SHT31;51008;51.504;11.548;2024-02-14T12:13:35;10.50;84.75
64599;SHT31;51008;51.504;11.548;2024-02-14T12:18:36;10.42;85.06
64599;SHT31;51008;51.504;11.548;2024-02-14T12:23:37;10.34;85.06
64599;SHT31;51008;51.504;11.548;2024-02-14T12:28:38;10.21;85.45
64599;SHT31;51008;51.504;11.548;2024-02-14T12:33:39;10.04;86.15
64599;SHT31;51008;51.504;11.548;2024-02-14T12:38:40;10.08;86.65
64599;SHT31;51008;51.504;11.548;2024-02-14T12:43:42;10.06;86.56
64599;SHT31;51008;51.504;11.548;2024-02-14T12:48:43;10.20;86.48
64599;SHT31;51008;51.504;11.548;2024-02-14T12:53:44;10.14;86.50
64599;SHT31;51008;51.504;11.548;2024-02-14T12:58:45;10.18;86.61
64599;SHT31;51008;51.504;11.548;2024-02-14T13:03:46;10.18;86.80
64599;SHT31;51008;51.504;11.548;2024-02-14T13:08:48;10.15;87.20
64599;SHT31;51008;51.504;11.548;2024-02-14T13:13:49;10.03;87.58
64599;SHT31;51008;51.504;11.548;2024-02-14T13:18:50;10.01;87.88
64599;SHT31;51008;51.504;11.548;2024-02-14T13:23:51;10.14;88.15
64599;SHT31;51008;51.504;11.548;2024-02-14T13:28:52;10.20;87.85
64599;SHT31;51008;51.504;11.548;2024-02-14T13:33:53;10.04;88.38
64599;SHT31;51008;51.504;11.548;2024-02-14T13:38:54;10.00;88.34
64599;SHT31;51008;51.504;11.548;2024-02-14T13:43:56;9.89;88.90
64599;SHT31;51008;51.504;11.548;2024-02-14T13:48:57;9.79;89.37
64599;SHT31;51008;51.504;11.548;2024-02-14T13:53:58;9.80;89.51
64599;SHT31;51008;51.504;11.548;2024-02-14T13:58:59;9.89;89.19
64599;SHT31;51008;51.504;11.548;2024-02-14T14:04:00;9.97;89.21
64599;SHT31;51008;51.504;11.548;2024-02-14T14:09:02;9.94;89.24
64599;SHT31;51008;51.504;11.548;2024-02-14T14:14:03;9.96;89.27
64599;SHT31;51008;51.504;11.548;2024-02-14T14:19:04;9.98;89.57
64599;SHT31;51008;51.504;11.548;2024-02-14T14:24:05;10.00;89.39
64599;SHT31;51008;51.504;11.548;2024-02-14T14:29:06;10.03;89.45
64599;SHT31;51008;51.504;11.548;2024-02-14T14:34:07;10.04;89.43
64599;SHT31;51008;51.504;11.548;2024-02-14T14:39:09;10.01;89.36
64599;SHT31;51008;51.504;11.548;2024-02-14T14:44:10;9.97;89.82
64599;SHT31;51008;51.504;11.548;2024-02-14T14:49:11;9.91;89.80
64599;SHT31;51008;51.504;11.548;2024-02-14T14:54:12;9.86;90.24
64599;SHT31;51008;51.504;11.548;2024-02-14T14:59:13;9.78;90.65
64599;SHT31;51008;51.504;11.548;2024-02-14T15:04:15;9.79;90.18
64599;SHT31;51008;51.504;11.548;2024-02-14T15:09:16;9.82;90.11
64599;SHT31;51008;51.504;11.548;2024-02-14T15:14:18;9.80;90.25
64599;SHT31;51008;51.504;11.548;2024-02-14T15:19:19;9.83;90.28
64599;SHT31;51008;51.504;11.548;2024-02-14T15:24:20;9.82;90.15
64599;SHT31;51008;51.504;11.548;2024-02-14T15:29:21;9.83;90.20
64599;SHT31;51008;51.504;11.548;2024-02-14T15:34:22;9.89;90.07
64599;SHT31;51008;51.504;11.548;2024-02-14T15:39:24;9.83;90.30
64599;SHT31;51008;51.504;11.548;2024-02-14T15:44:25;9.72;90.73
64599;SHT31;51008;51.504;11.548;2024-02-14T15:49:26;9.66;90.78
64599;SHT31;51008;51.504;11.548;2024-02-14T15:54:27;9.62;90.99
64599;SHT31;51008;51.504;11.548;2024-02-14T15:59:29;9.62;91.13
64599;SHT31;51008;51.504;11.548;2024-02-14T16:04:30;9.56;91.13
64599;SHT31;51008;51.504;11.548;2024-02-14T16:09:31;9.59;91.31
64599;SHT31;51008;51.504;11.548;2024-02-14T16:14:32;9.55;91.41
64599;SHT31;51008;51.504;11.548;2024-02-14T16:19:33;9.52;91.70
64599;SHT31;51008;51.504;11.548;2024-02-14T16:24:35;9.53;91.46
64599;SHT31;51008;51.504;11.548;2024-02-14T16:29:36;9.51;91.64
64599;SHT31;51008;51.504;11.548;2024-02-14T16:34:37;9.52;91.51
64599;SHT31;51008;51.504;11.548;2024-02-14T16:39:38;9.55;91.38
64599;SHT31;51008;51.504;11.548;2024-02-14T16:44:39;9.59;91.34
64599;SHT31;51008;51.504;11.548;2024-02-14T16:49:40;9.63;91.33
64599;SHT31;51008;51.504;11.548;2024-02-14T16:54:41;9.62;91.34
64599;SHT31;51008;51.504;11.548;2024-02-14T16:59:43;9.68;91.30
64599;SHT31;51008;51.504;11.548;2024-02-14T17:04:44;9.62;91.42
64599;SHT31;51008;51.504;11.548;2024-02-14T17:09:45;9.62;91.52
64599;SHT31;51008;51.504;11.548;2024-02-14T17:14:46;9.65;91.56
64599;SHT31;51008;51.504;11.548;2024-02-14T17:19:47;9.63;91.53
64599;SHT31;51008;51.504;11.548;2024-02-14T17:24:48;9.61;91.66
64599;SHT31;51008;51.504;11.548;2024-02-14T17:29:50;9.58;91.66
64599;SHT31;51008;51.504;11.548;2024-02-14T17:34:51;9.56;91.75
64599;SHT31;51008;51.504;11.548;2024-02-14T17:39:52;9.51;91.85
64599;SHT31;51008;51.504;11.548;2024-02-14T17:44:53;9.55;91.79
64599;SHT31;51008;51.504;11.548;2024-02-14T17:49:54;9.55;91.74
64599;SHT31;51008;51.504;11.548;2024-02-14T17:54:56;9.52;91.77
64599;SHT31;51008;51.504;11.548;2024-02-14T17:59:57;9.51;91.75
64599;SHT31;51008;51.504;11.548;2024-02-14T18:04:58;9.44;92.02
64599;SHT31;51008;51.504;11.548;2024-02-14T18:09:59;9.41;91.93
64599;SHT31;51008;51.504;11.548;2024-02-14T18:15:01;9.41;92.02
64599;SHT31;51008;51.504;11.548;2024-02-14T18:20:02;9.42;92.11
64599;SHT31;51008;51.504;11.548;2024-02-14T18:25:03;9.39;92.15
64599;SHT31;51008;51.504;11.548;2024-02-14T18:30:06;9.36;92.25
64599;SHT31;51008;51.504;11.548;2024-02-14T18:35:08;9.35;92.37
64599;SHT31;51008;51.504;11.548;2024-02-14T18:40:09;9.34;92.53
64599;SHT31;51008;51.504;11.548;2024-02-14T18:45:10;9.36;92.32
64599;SHT31;51008;51.504;11.548;2024-02-14T18:50:12;9.41;92.27
64599;SHT31;51008;51.504;11.548;2024-02-14T18:55:13;9.41;92.21
64599;SHT31;51008;51.504;11.548;2024-02-14T19:00:15;9.36;92.42
64599;SHT31;51008;51.504;11.548;2024-02-14T19:05:17;9.41;92.52
64599;SHT31;51008;51.504;11.548;2024-02-14T19:10:18;9.38;92.75
64599;SHT31;51008;51.504;11.548;2024-02-14T19:15:19;9.36;92.89
64599;SHT31;51008;51.504;11.548;2024-02-14T19:20:20;9.44;93.08
64599;SHT31;51008;51.504;11.548;2024-02-14T19:25:23;9.35;93.94
64599;SHT31;51008;51.504;11.548;2024-02-14T19:30:24;9.28;94.99
64599;SHT31;51008;51.504;11.548;2024-02-14T19:35:25;9.18;95.80
64599;SHT31;51008;51.504;11.548;2024-02-14T19:40:27;9.07;96.64
64599;SHT31;51008;51.504;11.548;2024-02-14T19:45:28;9.00;97.76
64599;SHT31;51008;51.504;11.548;2024-02-14T19:50:29;8.90;98.86
64599;SHT31;51008;51.504;11.548;2024-02-14T19:55:30;8.94;99.27
64599;SHT31;51008;51.504;11.548;2024-02-14T20:00:31;8.91;99.27
64599;SHT31;51008;51.504;11.548;2024-02-14T20:05:33;8.89;99.30
64599;SHT31;51008;51.504;11.548;2024-02-14T20:10:34;8.87;99.26
64599;SHT31;51008;51.504;11.548;2024-02-14T20:15:36;8.87;99.26
64599;SHT31;51008;51.504;11.548;2024-02-14T20:20:37;8.84;99.45
64599;SHT31;51008;51.504;11.548;2024-02-14T20:25:38;8.80;99.51
64599;SHT31;51008;51.504;11.548;2024-02-14T20:30:41;8.77;99.51
64599;SHT31;51008;51.504;11.548;2024-02-14T20:35:42;8.75;99.68
64599;SHT31;51008;51.504;11.548;2024-02-14T20:40:43;8.76;99.65
64599;SHT31;51008;51.504;11.548;2024-02-14T20:45:44;8.82;99.75
64599;SHT31;51008;51.504;11.548;2024-02-14T20:50:46;8.77;99.95
64599;SHT31;51008;51.504;11.548;2024-02-14T20:55:47;8.77;99.99
64599;SHT31;51008;51.504;11.548;2024-02-14T21:00:48;8.76;99.99
64599;SHT31;51008;51.504;11.548;2024-02-14T21:05:49;8.77;99.99
64599;SHT31;51008;51.504;11.548;2024-02-14T21:10:51;8.76;99.99
64599;SHT31;51008;51.504;11.548;2024-02-14T21:15:52;8.73;99.99
64599;SHT31;51008;51.504;11.548;2024-02-14T21:20:53;8.71;99.99
64599;SHT31;51008;51.504;11.548;2024-02-14T21:25:54;8.66;99.99
64599;SHT31;51008;51.504;11.548;2024-02-14T21:30:55;8.65;99.99
64599;SHT31;51008;51.504;11.548;2024-02-14T21:35:56;8.68;99.99
64599;SHT31;51008;51.504;11.548;2024-02-14T21:40:58;8.66;99.99
64599;SHT31;51008;51.504;11.548;2024-02-14T21:46:14;8.68;99.99
64599;SHT31;51008;51.504;11.548;2024-02-14T21:51:16;8.69;99.99
64599;SHT31;51008;51.504;11.548;2024-02-14T21:56:17;8.72;99.99
64599;SHT31;51008;51.504;11.548;2024-02-14T22:01:18;8.69;99.99
64599;SHT31;51008;51.504;11.548;2024-02-14T22:06:20;8.66;99.99
64599;SHT31;51008;51.504;11.548;2024-02-14T22:11:21;8.71;99.99
64599;SHT31;51008;51.504;11.548;2024-02-14T22:16:22;8.72;99.99
64599;SHT31;51008;51.504;11.548;2024-02-14T22:21:23;8.72;99.99
64599;SHT31;51008;51.504;11.548;2024-02-14T22:26:24;8.72;99.99
64599;SHT31;51008;51.504;11.548;2024-02-14T22:31:25;8.72;99.99
64599;SHT31;51008;51.504;11.548;2024-02-14T22:36:26;8.69;99.99
64599;SHT31;51008;51.504;11.548;2024-02-14T22:41:27;8.73;99.99
64599;SHT31;51008;51.504;11.548;2024-02-14T22:46:29;8.77;99.99
64599;SHT31;51008;51.504;11.548;2024-02-14T22:51:30;8.76;99.99
64599;SHT31;51008;51.504;11.548;2024-02-14T22:56:31;8.82;99.99
64599;SHT31;51008;51.504;11.548;2024-02-14T23:01:32;8.83;99.99
64599;SHT31;51008;51.504;11.548;2024-02-14T23:06:33;8.87;99.99
64599;SHT31;51008;51.504;11.548;2024-02-14T23:11:38;8.84;99.99
64599;SHT31;51008;51.504;11.548;2024-02-14T23:16:39;8.84;99.99
64599;SHT31;51008;51.504;11.548;2024-02-14T23:21:40;8.82;99.99
64599;SHT31;51008;51.504;11.548;2024-02-14T23:26:41;8.84;99.99
64599;SHT31;51008;51.504;11.548;2024-02-14T23:31:42;8.86;99.99
64599;SHT31;51008;51.504;11.548;2024-02-14T23:36:44;8.84;99.99
64599;SHT31;51008;51.504;11.548;2024-02-14T23:41:45;8.89;99.99
64599;SHT31;51008;51.504;11.548;2024-02-14T23:46:46;8.89;99.99
64599;SHT31;51008;51.504;11.548;2024-02-14T23:51:47;8.96;99.99
64599;SHT31;51008;51.504;11.548;2024-02-14T23:56:48;9.00;99.99
